createdAt,value
2023-09-18T00:00:36.256Z,21.70
2023-09-18T00:03:04.528Z,21.70
2023-09-18T00:05:32.334Z,21.70
2023-09-18T00:07:59.187Z,21.80
2023-09-18T00:10:27.563Z,21.80
2023-09-18T00:12:54.334Z,21.80
2023-09-18T00:15:21.151Z,21.80
2023-09-18T00:17:47.991Z,21.70
2023-09-18T00:20:15.098Z,21.70
2023-09-18T00:22:42.003Z,21.60
2023-09-18T00:25:08.846Z,21.60
2023-09-18T00:27:37.202Z,21.60
2023-09-18T00:30:08.073Z,21.60
2023-09-18T00:32:35.004Z,21.50
2023-09-18T00:35:01.948Z,21.50
2023-09-18T00:37:30.015Z,21.50
2023-09-18T00:39:56.825Z,21.50
2023-09-18T00:42:23.931Z,21.50
2023-09-18T00:44:51.649Z,21.50
2023-09-18T00:47:18.920Z,21.50
2023-09-18T00:49:49.828Z,21.50
2023-09-18T00:52:18.139Z,21.50
2023-09-18T00:54:45.969Z,21.50
2023-09-18T00:57:13.057Z,21.50
2023-09-18T00:59:40.397Z,21.50
2023-09-18T01:02:08.116Z,21.60
2023-09-18T01:04:35.450Z,21.70
2023-09-18T01:07:05.679Z,21.70
2023-09-18T01:09:33.931Z,21.70
2023-09-18T01:12:16.860Z,21.60
2023-09-18T01:15:11.438Z,21.70
2023-09-18T01:17:41.896Z,21.70
2023-09-18T01:20:13.055Z,21.60
2023-09-18T01:22:40.048Z,21.60
2023-09-18T01:25:08.090Z,21.60
2023-09-18T01:27:35.156Z,21.60
2023-09-18T01:30:02.169Z,21.60
2023-09-18T01:32:33.005Z,21.60
2023-09-18T01:35:04.914Z,21.60
2023-09-18T01:37:32.660Z,21.60
2023-09-18T01:40:00.717Z,21.60
2023-09-18T01:42:28.713Z,21.60
2023-09-18T01:44:56.255Z,21.60
2023-09-18T01:47:28.337Z,21.60
2023-09-18T01:49:55.311Z,21.60
2023-09-18T01:52:22.806Z,21.60
2023-09-18T01:54:50.397Z,21.60
2023-09-18T01:57:17.150Z,21.60
2023-09-18T01:59:44.716Z,21.70
2023-09-18T02:02:16.690Z,21.60
2023-09-18T02:04:54.356Z,21.50
2023-09-18T02:07:32.813Z,21.50
2023-09-18T02:09:59.774Z,21.50
2023-09-18T02:12:26.658Z,21.40
2023-09-18T02:14:53.498Z,21.40
2023-09-18T02:17:21.789Z,21.20
2023-09-18T02:19:48.766Z,21.10
2023-09-18T02:22:15.444Z,21.20
2023-09-18T02:24:42.337Z,21.20
2023-09-18T02:27:09.104Z,21.20
2023-09-18T02:29:35.895Z,21.10
2023-09-18T02:32:03.378Z,21.10
2023-09-18T02:34:30.481Z,21.20
2023-09-18T02:36:57.826Z,21.30
2023-09-18T02:39:24.593Z,21.10
2023-09-18T02:41:51.412Z,21.00
2023-09-18T02:44:18.313Z,21.00
2023-09-18T02:46:45.328Z,20.90
2023-09-18T02:49:12.026Z,20.80
2023-09-18T02:51:38.985Z,20.70
2023-09-18T02:54:06.148Z,20.60
2023-09-18T02:56:32.964Z,20.60
2023-09-18T02:58:59.867Z,20.70
2023-09-18T03:01:26.869Z,20.70
2023-09-18T03:03:53.865Z,20.70
2023-09-18T03:06:20.642Z,20.60
2023-09-18T03:08:47.421Z,20.70
2023-09-18T03:11:15.340Z,20.60
2023-09-18T03:13:49.623Z,20.50
2023-09-18T03:16:16.593Z,20.50
2023-09-18T03:18:43.364Z,20.50
2023-09-18T03:21:10.341Z,20.60
2023-09-18T03:23:37.731Z,20.60
2023-09-18T03:26:04.726Z,20.60
2023-09-18T03:28:31.564Z,20.60
2023-09-18T03:30:59.979Z,20.60
2023-09-18T03:33:26.861Z,20.60
2023-09-18T03:35:56.188Z,20.50
2023-09-18T03:38:23.665Z,20.50
2023-09-18T03:40:50.674Z,20.50
2023-09-18T03:43:18.221Z,20.50
2023-09-18T03:45:45.001Z,20.50
2023-09-18T03:48:12.535Z,20.50
2023-09-18T03:50:40.273Z,20.50
2023-09-18T03:53:08.262Z,20.60
2023-09-18T03:55:35.136Z,20.60
2023-09-18T03:58:02.020Z,20.60
2023-09-18T04:00:28.782Z,20.50
2023-09-18T04:02:55.812Z,20.50
2023-09-18T04:05:22.830Z,20.40
2023-09-18T04:07:49.539Z,20.50
2023-09-18T04:10:20.694Z,20.50
2023-09-18T04:12:47.846Z,20.60
2023-09-18T04:15:16.482Z,20.40
2023-09-18T04:17:43.394Z,20.50
2023-09-18T04:20:10.931Z,20.30
2023-09-18T04:22:44.269Z,20.30
2023-09-18T04:25:11.425Z,20.20
2023-09-18T04:27:38.780Z,20.10
2023-09-18T04:30:06.615Z,20.10
2023-09-18T04:32:33.457Z,20.00
2023-09-18T04:35:00.318Z,20.00
2023-09-18T04:37:27.087Z,20.00
2023-09-18T04:39:53.859Z,20.00
2023-09-18T04:42:20.656Z,20.00
2023-09-18T04:44:47.496Z,19.90
2023-09-18T04:47:14.257Z,19.90
2023-09-18T04:49:41.070Z,19.90
2023-09-18T04:52:07.965Z,19.90
2023-09-18T04:54:34.852Z,19.90
2023-09-18T04:57:01.539Z,19.90
2023-09-18T04:59:28.528Z,19.80
2023-09-18T05:01:55.227Z,19.80
2023-09-18T05:04:21.976Z,19.80
2023-09-18T05:06:48.658Z,19.70
2023-09-18T05:09:15.918Z,19.70
2023-09-18T05:11:43.319Z,19.80
2023-09-18T05:14:11.036Z,19.80
2023-09-18T05:16:37.848Z,19.70
2023-09-18T05:19:05.173Z,19.70
2023-09-18T05:21:31.844Z,19.70
2023-09-18T05:23:58.543Z,19.70
2023-09-18T05:26:25.930Z,19.70
2023-09-18T05:28:53.276Z,19.70
2023-09-18T05:31:20.400Z,19.70
2023-09-18T05:33:47.237Z,19.70
2023-09-18T05:36:15.860Z,19.70
2023-09-18T05:38:44.410Z,19.70
2023-09-18T05:41:11.580Z,19.80
2023-09-18T05:43:38.762Z,19.80
2023-09-18T05:46:05.623Z,19.70
2023-09-18T05:48:32.485Z,19.70
2023-09-18T05:50:59.648Z,19.80
2023-09-18T05:53:26.533Z,19.80
2023-09-18T05:55:53.400Z,19.80
2023-09-18T05:58:23.415Z,19.70
2023-09-18T06:00:50.796Z,19.80
2023-09-18T06:03:20.341Z,19.80
2023-09-18T06:05:48.195Z,19.80
2023-09-18T06:08:17.171Z,19.90
2023-09-18T06:10:44.430Z,19.90
2023-09-18T06:13:11.505Z,19.90
2023-09-18T06:15:38.269Z,19.90
2023-09-18T06:18:05.375Z,19.90
2023-09-18T06:20:32.394Z,19.90
2023-09-18T06:22:59.350Z,19.90
2023-09-18T06:25:26.206Z,19.80
2023-09-18T06:27:53.208Z,19.80
2023-09-18T06:30:20.084Z,19.70
2023-09-18T06:32:47.378Z,19.70
2023-09-18T06:35:14.285Z,19.70
2023-09-18T06:37:41.280Z,19.70
2023-09-18T06:40:08.855Z,19.80
2023-09-18T06:42:35.597Z,19.70
2023-09-18T06:45:02.672Z,19.70
2023-09-18T06:47:29.968Z,19.70
2023-09-18T06:49:56.920Z,19.70
2023-09-18T06:52:23.741Z,19.70
2023-09-18T06:54:50.511Z,19.70
2023-09-18T06:57:17.490Z,19.80
2023-09-18T06:59:44.363Z,19.80
2023-09-18T07:02:11.563Z,19.70
2023-09-18T07:04:46.515Z,19.70
2023-09-18T07:07:14.709Z,19.70
2023-09-18T07:09:59.197Z,19.80
2023-09-18T07:12:30.334Z,19.80
2023-09-18T07:14:57.173Z,19.80
2023-09-18T07:17:24.084Z,19.70
2023-09-18T07:19:51.042Z,19.70
2023-09-18T07:22:18.118Z,19.70
2023-09-18T07:24:46.547Z,19.70
2023-09-18T07:27:14.053Z,19.70
2023-09-18T07:29:40.955Z,19.60
2023-09-18T07:32:07.833Z,19.60
2023-09-18T07:34:34.591Z,19.60
2023-09-18T07:37:01.707Z,19.60
2023-09-18T07:39:30.698Z,19.60
2023-09-18T07:41:58.373Z,19.60
2023-09-18T07:44:25.433Z,19.60
2023-09-18T07:46:52.262Z,19.50
2023-09-18T07:49:19.067Z,19.60
2023-09-18T07:51:46.334Z,19.60
2023-09-18T07:54:17.074Z,19.60
2023-09-18T07:56:44.405Z,19.70
2023-09-18T07:59:11.935Z,19.70
2023-09-18T08:01:38.897Z,19.60
2023-09-18T08:04:07.042Z,19.60
2023-09-18T08:06:34.015Z,19.70
2023-09-18T08:09:02.156Z,19.70
2023-09-18T08:11:29.048Z,19.70
2023-09-18T08:13:55.788Z,19.60
2023-09-18T08:16:22.630Z,19.70
2023-09-18T08:18:49.688Z,19.70
2023-09-18T08:21:17.902Z,19.70
2023-09-18T08:23:44.797Z,19.80
2023-09-18T08:26:11.967Z,19.80
2023-09-18T08:28:44.731Z,19.80
2023-09-18T08:31:12.713Z,19.80
2023-09-18T08:33:39.521Z,19.90
2023-09-18T08:36:06.575Z,19.90
2023-09-18T08:38:33.483Z,19.90
2023-09-18T08:41:00.656Z,19.90
2023-09-18T08:43:28.044Z,20.00
2023-09-18T08:45:56.893Z,19.90
2023-09-18T08:48:25.366Z,19.90
2023-09-18T08:50:52.948Z,19.90
2023-09-18T08:53:20.031Z,19.90
2023-09-18T08:55:46.845Z,19.90
2023-09-18T08:58:14.454Z,19.90
2023-09-18T09:00:41.599Z,19.80
2023-09-18T09:03:09.170Z,19.90
2023-09-18T09:05:36.507Z,19.90
2023-09-18T09:08:03.532Z,19.90
2023-09-18T09:10:30.747Z,19.90
2023-09-18T09:13:01.857Z,19.90
2023-09-18T09:15:32.573Z,20.00
2023-09-18T09:18:07.813Z,20.00
2023-09-18T09:20:36.913Z,20.00
2023-09-18T09:23:06.881Z,20.00
2023-09-18T09:25:34.828Z,20.10
2023-09-18T09:28:06.336Z,20.10
2023-09-18T09:30:35.176Z,20.10
2023-09-18T09:33:03.983Z,20.10
2023-09-18T09:35:35.948Z,20.20
2023-09-18T09:38:11.330Z,20.20
2023-09-18T09:40:42.295Z,20.20
2023-09-18T09:43:11.636Z,20.20
2023-09-18T09:45:39.202Z,20.20
2023-09-18T09:48:08.125Z,20.20
2023-09-18T09:50:47.850Z,20.30
2023-09-18T09:53:15.721Z,20.30
2023-09-18T09:55:42.867Z,20.40
2023-09-18T09:58:12.334Z,20.40
2023-09-18T10:00:49.107Z,20.40
2023-09-18T10:03:17.539Z,20.60
2023-09-18T10:05:46.400Z,20.60
2023-09-18T10:08:14.586Z,20.60
2023-09-18T10:10:48.051Z,20.70
2023-09-18T10:13:23.924Z,20.70
2023-09-18T10:15:52.763Z,20.80
2023-09-18T10:18:33.272Z,20.80
2023-09-18T10:21:52.707Z,20.80
2023-09-18T10:24:25.686Z,20.80
2023-09-18T10:27:00.585Z,20.80
2023-09-18T10:29:28.810Z,20.80
2023-09-18T10:31:56.002Z,20.90
2023-09-18T10:34:24.767Z,20.90
2023-09-18T10:36:53.394Z,20.90
2023-09-18T10:39:25.163Z,21.00
2023-09-18T10:41:59.433Z,21.00
2023-09-18T10:44:26.587Z,21.10
2023-09-18T10:46:54.255Z,21.10
2023-09-18T10:49:21.640Z,21.20
2023-09-18T10:51:49.247Z,21.30
2023-09-18T10:54:22.851Z,21.30
2023-09-18T10:56:50.422Z,21.40
2023-09-18T10:59:18.757Z,21.50
2023-09-18T11:01:48.993Z,21.60
2023-09-18T11:04:20.744Z,21.70
2023-09-18T11:07:06.978Z,21.70
2023-09-18T11:09:43.701Z,21.80
2023-09-18T11:12:12.310Z,21.90
2023-09-18T11:14:51.495Z,21.90
2023-09-18T11:17:39.024Z,22.00
2023-09-18T11:20:26.149Z,22.00
2023-09-18T11:23:11.238Z,22.10
2023-09-18T11:25:39.889Z,22.10
2023-09-18T11:28:10.297Z,22.10
2023-09-18T11:30:38.443Z,22.10
2023-09-18T11:33:07.086Z,22.20
2023-09-18T11:35:36.846Z,22.30
2023-09-18T11:38:11.682Z,22.20
2023-09-18T11:40:42.878Z,22.20
2023-09-18T11:43:36.622Z,22.20
2023-09-18T11:46:05.880Z,22.20
2023-09-18T11:48:35.136Z,22.10
2023-09-18T11:51:06.128Z,22.20
2023-09-18T11:53:38.156Z,22.10
2023-09-18T11:56:11.010Z,22.20
2023-09-18T11:58:52.305Z,22.20
2023-09-18T12:01:20.315Z,22.30
2023-09-18T12:03:48.705Z,22.30
2023-09-18T12:06:16.933Z,22.40
2023-09-18T12:08:43.953Z,22.60
2023-09-18T12:11:10.783Z,22.70
2023-09-18T12:13:38.689Z,22.70
2023-09-18T12:16:06.862Z,22.80
2023-09-18T12:18:39.108Z,22.90
2023-09-18T12:21:09.497Z,22.90
2023-09-18T12:23:47.054Z,22.90
2023-09-18T12:26:16.558Z,23.00
2023-09-18T12:28:44.649Z,23.20
2023-09-18T12:31:12.708Z,23.20
2023-09-18T12:33:40.994Z,23.20
2023-09-18T12:36:09.224Z,23.10
2023-09-18T12:38:38.086Z,23.10
2023-09-18T12:41:10.308Z,23.10
2023-09-18T12:43:38.241Z,23.10
2023-09-18T12:46:06.760Z,23.00
2023-09-18T12:48:34.261Z,23.00
2023-09-18T12:51:08.930Z,23.00
2023-09-18T12:53:35.985Z,23.00
2023-09-18T12:56:10.807Z,23.10
2023-09-18T12:58:52.464Z,23.10
2023-09-18T13:01:24.997Z,23.30
2023-09-18T13:03:57.029Z,23.50
2023-09-18T13:06:25.380Z,23.70
2023-09-18T13:08:54.691Z,23.90
2023-09-18T13:11:21.729Z,23.90
2023-09-18T13:13:58.834Z,24.10
2023-09-18T13:16:26.126Z,24.10
2023-09-18T13:18:53.778Z,24.10
2023-09-18T13:21:21.444Z,24.10
2023-09-18T13:23:48.458Z,24.10
2023-09-18T13:26:15.545Z,24.00
2023-09-18T13:28:44.023Z,24.10
2023-09-18T13:31:11.176Z,24.10
2023-09-18T13:33:41.867Z,24.10
2023-09-18T13:36:09.161Z,24.10
2023-09-18T13:38:35.918Z,24.20
2023-09-18T13:41:03.931Z,24.20
2023-09-18T13:43:33.799Z,24.20
2023-09-18T13:46:00.970Z,24.30
2023-09-18T13:48:28.098Z,24.40
2023-09-18T13:50:55.123Z,24.60
2023-09-18T13:53:23.283Z,24.60
2023-09-18T13:55:50.211Z,24.80
2023-09-18T13:58:18.443Z,24.90
2023-09-18T14:00:48.260Z,25.00
2023-09-18T14:03:18.370Z,25.20
2023-09-18T14:05:45.428Z,25.30
2023-09-18T14:08:12.348Z,25.30
2023-09-18T14:10:40.914Z,25.20
2023-09-18T14:13:08.639Z,25.30
2023-09-18T14:15:35.477Z,25.40
2023-09-18T14:18:02.315Z,25.40
2023-09-18T14:20:29.219Z,25.30
2023-09-18T14:22:56.129Z,25.30
2023-09-18T14:25:23.624Z,25.40
2023-09-18T14:27:50.567Z,25.40
2023-09-18T14:30:17.767Z,25.40
2023-09-18T14:32:44.852Z,25.50
2023-09-18T14:35:12.379Z,25.70
2023-09-18T14:37:39.395Z,25.70
2023-09-18T14:40:07.057Z,25.70
2023-09-18T14:42:34.501Z,25.70
2023-09-18T14:45:02.575Z,25.60
2023-09-18T14:47:30.162Z,25.70
2023-09-18T14:49:57.096Z,25.70
2023-09-18T14:52:26.761Z,25.70
2023-09-18T14:54:53.737Z,25.70
2023-09-18T14:57:20.616Z,25.70
2023-09-18T14:59:48.795Z,25.80
2023-09-18T15:02:17.264Z,25.90
2023-09-18T15:04:44.571Z,25.80
2023-09-18T15:07:11.938Z,25.80
2023-09-18T15:09:39.204Z,25.70
2023-09-18T15:12:08.820Z,25.60
2023-09-18T15:14:38.976Z,25.50
2023-09-18T15:17:05.766Z,25.50
2023-09-18T15:19:33.025Z,25.60
2023-09-18T15:22:00.466Z,25.60
2023-09-18T15:24:27.326Z,25.60
2023-09-18T15:26:54.215Z,25.60
2023-09-18T15:29:21.028Z,25.50
2023-09-18T15:31:48.270Z,25.60
2023-09-18T15:34:15.336Z,25.60
2023-09-18T15:36:42.225Z,25.60
2023-09-18T15:39:09.800Z,25.50
2023-09-18T15:41:38.612Z,25.70
2023-09-18T15:44:05.818Z,25.70
2023-09-18T15:46:32.621Z,25.80
2023-09-18T15:48:59.433Z,25.80
2023-09-18T15:51:26.243Z,25.60
2023-09-18T15:53:53.134Z,25.70
2023-09-18T15:56:21.170Z,25.50
2023-09-18T15:58:49.173Z,25.60
2023-09-18T16:01:16.546Z,25.60
2023-09-18T16:03:48.347Z,25.40
2023-09-18T16:06:22.210Z,25.50
2023-09-18T16:08:50.700Z,25.20
2023-09-18T16:11:18.036Z,25.10
2023-09-18T16:13:44.901Z,25.00
2023-09-18T16:16:11.845Z,24.90
2023-09-18T16:18:38.816Z,24.80
2023-09-18T16:21:06.684Z,24.70
2023-09-18T16:23:35.032Z,24.60
2023-09-18T16:26:01.867Z,24.60
2023-09-18T16:28:28.583Z,24.40
2023-09-18T16:30:55.296Z,24.30
2023-09-18T16:33:22.104Z,24.20
2023-09-18T16:35:50.707Z,24.10
2023-09-18T16:38:17.624Z,24.10
2023-09-18T16:40:44.785Z,24.00
2023-09-18T16:43:11.875Z,24.00
2023-09-18T16:45:38.654Z,23.90
2023-09-18T16:48:06.016Z,23.70
2023-09-18T16:50:33.147Z,23.70
2023-09-18T16:53:00.052Z,23.70
2023-09-18T16:55:28.057Z,23.60
2023-09-18T16:57:56.164Z,23.50
2023-09-18T17:00:23.115Z,23.00
2023-09-18T17:02:52.341Z,22.80
2023-09-18T17:05:19.853Z,22.50
2023-09-18T17:07:46.813Z,21.70
2023-09-18T17:10:13.728Z,21.40
2023-09-18T17:12:41.269Z,20.50
2023-09-18T17:15:10.254Z,20.30
2023-09-18T17:17:37.599Z,20.30
2023-09-18T17:20:05.417Z,20.10
2023-09-18T17:22:34.098Z,20.00
2023-09-18T17:25:01.363Z,20.60
2023-09-18T17:27:28.270Z,20.80
2023-09-18T17:29:59.617Z,20.80
2023-09-18T17:32:27.492Z,20.40
2023-09-18T17:34:55.185Z,20.20
2023-09-18T17:37:22.155Z,20.10
2023-09-18T17:39:48.860Z,20.10
2023-09-18T17:42:15.616Z,20.20
2023-09-18T17:44:42.371Z,20.20
2023-09-18T17:47:09.097Z,20.10
2023-09-18T17:49:36.629Z,20.00
2023-09-18T17:52:07.185Z,19.80
2023-09-18T17:54:34.169Z,19.80
2023-09-18T17:57:00.918Z,19.70
2023-09-18T17:59:29.288Z,19.60
2023-09-18T18:01:56.571Z,19.80
2023-09-18T18:04:23.920Z,19.80
2023-09-18T18:06:50.967Z,19.80
2023-09-18T18:09:18.903Z,19.80
2023-09-18T18:11:45.747Z,19.80
2023-09-18T18:14:14.473Z,19.80
2023-09-18T18:16:41.162Z,19.70
2023-09-18T18:19:08.233Z,19.70
2023-09-18T18:21:35.188Z,19.70
2023-09-18T18:24:04.926Z,19.50
2023-09-18T18:26:34.797Z,19.40
2023-09-18T18:29:04.973Z,19.40
2023-09-18T18:31:33.425Z,19.50
2023-09-18T18:34:01.421Z,19.40
2023-09-18T18:36:28.827Z,19.40
2023-09-18T18:38:55.934Z,19.30
2023-09-18T18:41:23.341Z,19.30
2023-09-18T18:43:50.105Z,19.30
2023-09-18T18:46:17.230Z,19.30
2023-09-18T18:48:44.296Z,19.20
2023-09-18T18:53:48.945Z,19.00
2023-09-18T18:56:18.192Z,18.90
2023-09-18T18:58:47.547Z,19.00
2023-09-18T19:01:15.139Z,18.80
2023-09-18T19:03:44.306Z,18.90
2023-09-18T19:06:11.462Z,18.80
2023-09-18T19:08:39.506Z,18.80
2023-09-18T19:11:06.514Z,18.90
2023-09-18T19:13:37.304Z,18.70
2023-09-18T19:16:04.449Z,18.60
2023-09-18T19:18:31.499Z,18.70
2023-09-18T19:21:07.646Z,18.70
2023-09-18T19:23:36.382Z,18.50
2023-09-18T19:26:05.397Z,18.50
2023-09-18T19:28:32.198Z,18.50
2023-09-18T19:31:00.114Z,18.50
2023-09-18T19:33:33.693Z,18.50
2023-09-18T19:36:00.844Z,18.50
2023-09-18T19:38:28.855Z,18.50
2023-09-18T19:40:55.713Z,18.50
2023-09-18T19:43:22.813Z,18.50
2023-09-18T19:45:50.700Z,18.50
2023-09-18T19:48:17.634Z,18.50
2023-09-18T19:50:44.630Z,18.40
2023-09-18T19:53:11.464Z,18.40
2023-09-18T19:55:38.428Z,18.50
2023-09-18T19:58:05.957Z,18.50
2023-09-18T20:00:32.894Z,18.40
2023-09-18T20:02:59.822Z,18.40
2023-09-18T20:05:26.885Z,18.40
2023-09-18T20:07:53.696Z,18.30
2023-09-18T20:10:22.439Z,18.30
2023-09-18T20:12:51.347Z,18.30
2023-09-18T20:15:19.899Z,18.30
2023-09-18T20:17:48.234Z,18.20
2023-09-18T20:20:16.223Z,18.30
2023-09-18T20:22:43.774Z,18.30
2023-09-18T20:25:13.680Z,18.40
2023-09-18T20:27:44.766Z,18.40
2023-09-18T20:30:15.004Z,18.40
2023-09-18T20:32:43.458Z,18.30
2023-09-18T20:35:11.482Z,18.30
2023-09-18T20:37:38.679Z,18.30
2023-09-18T20:40:08.930Z,18.30
2023-09-18T20:42:35.884Z,18.30
2023-09-18T20:45:05.751Z,18.30
2023-09-18T20:47:36.156Z,18.30
2023-09-18T20:50:04.182Z,18.30
2023-09-18T20:52:30.937Z,18.30
2023-09-18T20:54:59.072Z,18.30
2023-09-18T20:57:26.294Z,18.30
2023-09-18T20:59:55.247Z,18.30
2023-09-18T21:02:22.436Z,18.20
2023-09-18T21:04:49.441Z,18.30
2023-09-18T21:07:16.402Z,18.20
2023-09-18T21:09:44.310Z,18.20
2023-09-18T21:12:11.293Z,18.20
2023-09-18T21:14:38.297Z,18.20
2023-09-18T21:17:05.315Z,18.20
2023-09-18T21:19:32.719Z,18.20
2023-09-18T21:21:59.865Z,18.20
2023-09-18T21:24:26.856Z,18.10
2023-09-18T21:26:53.945Z,18.20
2023-09-18T21:29:26.883Z,18.10
2023-09-18T21:32:04.185Z,18.10
2023-09-18T21:34:31.829Z,18.10
2023-09-18T21:36:58.637Z,18.10
2023-09-18T21:39:26.594Z,18.10
2023-09-18T21:41:53.506Z,18.10
2023-09-18T21:44:20.420Z,18.00
2023-09-18T21:46:47.135Z,18.00
2023-09-18T21:49:14.019Z,18.10
2023-09-18T21:51:40.789Z,18.10
2023-09-18T21:54:07.974Z,18.10
2023-09-18T21:56:35.584Z,18.00
2023-09-18T21:59:03.720Z,18.00
2023-09-18T22:01:30.836Z,18.00
2023-09-18T22:03:57.774Z,18.00
2023-09-18T22:06:24.701Z,18.00
2023-09-18T22:08:51.507Z,18.00
2023-09-18T22:11:18.648Z,18.00
2023-09-18T22:13:45.476Z,17.90
2023-09-18T22:16:12.575Z,18.00
2023-09-18T22:18:40.330Z,18.00
2023-09-18T22:21:07.261Z,18.00
2023-09-18T22:23:34.127Z,18.00
2023-09-18T22:26:03.264Z,18.00
2023-09-18T22:28:30.462Z,18.00
2023-09-18T22:30:58.084Z,18.00
2023-09-18T22:33:25.907Z,18.00
2023-09-18T22:35:52.934Z,18.00
2023-09-18T22:38:55.866Z,18.00
2023-09-18T22:41:23.969Z,18.00
2023-09-18T22:44:28.204Z,17.90
2023-09-18T22:50:42.488Z,17.70
2023-09-18T22:53:09.339Z,17.80
2023-09-18T22:55:41.151Z,17.80
2023-09-18T22:58:10.648Z,17.70
2023-09-18T23:00:39.125Z,17.80
2023-09-18T23:03:09.701Z,17.70
2023-09-18T23:05:37.815Z,17.70
2023-09-18T23:08:10.743Z,17.70
2023-09-18T23:10:38.554Z,17.70
2023-09-18T23:13:05.653Z,17.70
2023-09-18T23:15:35.463Z,17.80
2023-09-18T23:18:12.131Z,17.70
2023-09-18T23:20:40.764Z,17.70
2023-09-18T23:23:08.395Z,17.70
2023-09-18T23:25:38.672Z,17.70
2023-09-18T23:28:07.252Z,17.70
2023-09-18T23:30:34.540Z,17.70
2023-09-18T23:33:06.408Z,17.70
2023-09-18T23:35:38.038Z,17.70
2023-09-18T23:38:08.852Z,17.70
2023-09-18T23:40:38.018Z,17.80
2023-09-18T23:43:06.617Z,17.70
2023-09-18T23:45:44.828Z,17.70
2023-09-18T23:48:22.201Z,17.70
2023-09-18T23:50:52.745Z,17.70
2023-09-18T23:53:21.878Z,17.70
2023-09-18T23:55:50.791Z,17.70
2023-09-18T23:58:18.172Z,17.60
